PWSweather.com
Personal Weather Stations
Station Observations
STPETERS
BroadstairsGB

BroadstairsGB

Lat: 51.37, Lon: 1.423

Elevation: 141

Station Type: WH1081

Latest ConditionsUpdated 1:15:01 PM GMT Sunday, Jul 5, 2015
Currently Today's Max Today's Min Today's Average
Temperature 65.5°F18.6°C 68.7°F20.4°C 58.6°F14.8°C 63.0°F17.2°C
Dew Point 65.5°F18.6°C 65.5°F18.6°C 52.2°F11.2°C 56.1°F13.4°C
Winds 10.2 mph SSE16.4 kmh SSE 10.2 mph SSE16.4 kmh SSE - 3.5 mph 5.6 kmh
Wind Gusts 12.1 mph19.5 kmh 13.6 mph21.9 kmh - -
Humidity 100% 100% 64% 80%
Pressure 30.05 in1017.6 mb 30.16 in1021.3 mb 30.04 in1017.3 mb -
Precipitation - 0.57 in14.5 mm - -
Hour Temp Dew Point Humidity Winds Wind Gusts Pressure Precip Precip Rate Daily Precip Total
01:15 PM 65.5°F18.6°C 65.5°F18.6°C 100% 10.2 mph SSE16.4 kmh SSE 12.1 mph19.5 kmh 30.05 in1017.6 mb 0.00 in0.0 mm 0.00 in0.0 mm 0.57 in14.5 mm
01:00 PM 65.5°F18.6°C 65.5°F18.6°C 100% 7.3 mph S11.7 kmh S 11.4 mph18.3 kmh 30.05 in1017.6 mb 0.00 in0.0 mm 0.00 in0.0 mm 0.57 in14.5 mm
12:45 PM 63.0°F17.2°C 63.0°F17.2°C 100% 9.2 mph SSE14.8 kmh SSE 12.1 mph19.5 kmh 30.05 in1017.6 mb 0.01 in0.3 mm 0.00 in0.0 mm 0.57 in14.5 mm
12:30 PM 60.3°F15.7°C 60.3°F15.7°C 100% 6.9 mph ESE11.1 kmh ESE 9.8 mph15.8 kmh 30.05 in1017.6 mb 0.04 in1.0 mm 0.00 in0.0 mm 0.57 in14.5 mm
12:15 PM 60.4°F15.8°C 60.5°F15.8°C 100% 3.7 mph SE6.0 kmh SE 6.0 mph9.7 kmh 30.04 in1017.3 mb 0.08 in2.0 mm 0.00 in0.0 mm 0.57 in14.5 mm
12:00 PM 60.3°F15.7°C 60.3°F15.7°C 100% 4.2 mph SSE6.8 kmh SSE 6.0 mph9.7 kmh 30.07 in1018.3 mb 0.12 in3.0 mm 0.00 in0.0 mm 0.57 in14.5 mm
11:45 AM 59.5°F15.3°C 59.6°F15.3°C 100% 4.0 mph E6.4 kmh E 6.0 mph9.7 kmh 30.06 in1017.9 mb 0.15 in3.8 mm 0.00 in0.0 mm 0.56 in14.2 mm
11:30 AM 59.4°F15.2°C 59.4°F15.2°C 100% 2.0 mph ESE3.2 kmh ESE 5.4 mph8.7 kmh 30.06 in1017.9 mb 0.15 in3.8 mm 0.16 in4.1 mm 0.53 in13.5 mm
11:15 AM 59.4°F15.2°C 59.4°F15.2°C 100% 1.9 mph W3.1 kmh W 3.1 mph5.0 kmh 30.07 in1018.3 mb 0.11 in2.8 mm 0.16 in4.1 mm 0.48 in12.2 mm
11:00 AM 59.5°F15.3°C 59.6°F15.3°C 100% 2.4 mph W3.9 kmh W 5.4 mph8.7 kmh 30.06 in1017.9 mb 0.07 in1.8 mm 0.07 in1.8 mm 0.45 in11.4 mm
10:45 AM 59.7°F15.4°C 59.7°F15.4°C 100% 4.3 mph W6.9 kmh W 6.9 mph11.1 kmh 30.08 in1018.6 mb 0.02 in0.5 mm 0.08 in2.0 mm 0.40 in10.2 mm
10:30 AM 59.9°F15.5°C 59.9°F15.5°C 100% 2.5 mph W4.0 kmh W 3.8 mph6.1 kmh 30.07 in1018.3 mb 0.00 in0.0 mm 0.00 in0.0 mm 0.38 in9.7 mm
10:15 AM 59.7°F15.4°C 59.7°F15.4°C 100% 3.6 mph NW5.8 kmh NW 6.9 mph11.1 kmh 30.06 in1017.9 mb 0.00 in0.0 mm 0.00 in0.0 mm 0.38 in9.7 mm
10:00 AM 59.7°F15.4°C 59.7°F15.4°C 100% 2.8 mph NW4.5 kmh NW 3.8 mph6.1 kmh 30.07 in1018.3 mb 0.02 in0.5 mm 0.00 in0.0 mm 0.38 in9.7 mm
09:45 AM 59.9°F15.5°C 59.9°F15.5°C 100% 2.6 mph W4.2 kmh W 4.5 mph7.2 kmh 30.08 in1018.6 mb 0.05 in1.3 mm 0.00 in0.0 mm 0.38 in9.7 mm
09:30 AM 59.2°F15.1°C 59.2°F15.1°C 100% 5.2 mph NW8.4 kmh NW 6.9 mph11.1 kmh 30.09 in1019.0 mb 0.09 in2.3 mm 0.00 in0.0 mm 0.38 in9.7 mm
09:15 AM 58.6°F14.8°C 58.1°F14.5°C 98% 6.5 mph WSW10.5 kmh WSW 9.8 mph15.8 kmh 30.10 in1019.3 mb 0.22 in5.6 mm 0.00 in0.0 mm 0.38 in9.7 mm
09:00 AM 59.0°F15.0°C 57.9°F14.4°C 96% 5.6 mph W9.0 kmh W 9.2 mph14.8 kmh 30.13 in1020.3 mb 0.35 in8.9 mm 0.03 in0.8 mm 0.35 in8.9 mm
08:45 AM 59.2°F15.1°C 56.6°F13.7°C 91% 6.0 mph WSW9.7 kmh WSW 8.3 mph13.4 kmh 30.11 in1019.6 mb 0.33 in8.4 mm 0.32 in8.1 mm 0.33 in8.4 mm
08:30 AM 60.8°F16.0°C 56.6°F13.7°C 86% 7.0 mph WSW11.3 kmh WSW 9.2 mph14.8 kmh 30.11 in1019.6 mb 0.25 in6.4 mm 0.40 in10.2 mm 0.25 in6.4 mm
08:15 AM 63.7°F17.6°C 57.1°F13.9°C 79% 7.9 mph SW12.7 kmh SW 13.6 mph21.9 kmh 30.12 in1020.0 mb 0.15 in3.8 mm 0.60 in15.2 mm 0.15 in3.8 mm
08:00 AM 66.2°F19.0°C 56.5°F13.6°C 71% 7.0 mph SW11.3 kmh SW 10.7 mph17.2 kmh 30.12 in1020.0 mb 0.00 in0.0 mm 0.00 in0.0 mm 0.00 in0.0 mm
07:45 AM 67.5°F19.7°C 55.7°F13.2°C 66% 4.9 mph WNW7.9 kmh WNW 7.6 mph12.2 kmh 30.09 in1019.0 mb 0.00 in0.0 mm 0.00 in0.0 mm 0.00 in0.0 mm
07:30 AM 68.7°F20.4°C 56.1°F13.4°C 64% 3.1 mph W5.0 kmh W 3.8 mph6.1 kmh 30.08 in1018.6 mb 0.00 in0.0 mm 0.00 in0.0 mm 0.00 in0.0 mm
07:15 AM 68.7°F20.4°C 56.1°F13.4°C 64% 2.8 mph NW4.5 kmh NW 5.4 mph8.7 kmh 30.07 in1018.3 mb 0.00 in0.0 mm 0.00 in0.0 mm 0.00 in0.0 mm
07:00 AM 67.5°F19.7°C 56.1°F13.4°C 67% 3.4 mph W5.5 kmh W 4.5 mph7.2 kmh 30.08 in1018.6 mb 0.00 in0.0 mm 0.00 in0.0 mm 0.00 in0.0 mm
06:45 AM 66.0°F18.9°C 55.6°F13.1°C 69% 2.8 mph WSW4.5 kmh WSW 5.4 mph8.7 kmh 30.09 in1019.0 mb 0.00 in0.0 mm 0.00 in0.0 mm 0.00 in0.0 mm
06:30 AM 65.5°F18.6°C 55.1°F12.8°C 69% 3.0 mph WSW4.8 kmh WSW 3.8 mph6.1 kmh 30.10 in1019.3 mb 0.00 in0.0 mm 0.00 in0.0 mm 0.00 in0.0 mm
06:15 AM 65.1°F18.4°C 54.7°F12.6°C 69% 2.4 mph W3.9 kmh W 4.5 mph7.2 kmh 30.10 in1019.3 mb 0.00 in0.0 mm 0.00 in0.0 mm 0.00 in0.0 mm
06:00 AM 64.8°F18.2°C 54.4°F12.4°C 69% 3.0 mph W4.8 kmh W 5.4 mph8.7 kmh 30.10 in1019.3 mb 0.00 in0.0 mm 0.00 in0.0 mm 0.00 in0.0 mm
05:45 AM 64.6°F18.1°C 55.0°F12.8°C 71% 2.7 mph WSW4.3 kmh WSW 3.8 mph6.1 kmh 30.11 in1019.6 mb 0.00 in0.0 mm 0.00 in0.0 mm 0.00 in0.0 mm
05:30 AM 64.2°F17.9°C 54.2°F12.3°C 70% 2.8 mph W4.5 kmh W 4.5 mph7.2 kmh 30.11 in1019.6 mb 0.00 in0.0 mm 0.00 in0.0 mm 0.00 in0.0 mm
05:15 AM 64.0°F17.8°C 54.5°F12.5°C 71% 3.1 mph WSW5.0 kmh WSW 4.5 mph7.2 kmh 30.12 in1020.0 mb 0.00 in0.0 mm 0.00 in0.0 mm 0.00 in0.0 mm
05:00 AM 63.5°F17.5°C 54.3°F12.4°C 72% 2.5 mph WSW4.0 kmh WSW 3.8 mph6.1 kmh 30.12 in1020.0 mb 0.00 in0.0 mm 0.00 in0.0 mm 0.00 in0.0 mm
04:45 AM 63.0°F17.2°C 53.8°F12.1°C 72% 2.0 mph W3.2 kmh W 3.8 mph6.1 kmh 30.12 in1020.0 mb 0.00 in0.0 mm 0.00 in0.0 mm 0.00 in0.0 mm
04:30 AM 62.6°F17.0°C 53.5°F11.9°C 72% 1.0 mph WSW1.6 kmh WSW 2.2 mph3.5 kmh 30.12 in1020.0 mb 0.00 in0.0 mm 0.00 in0.0 mm 0.00 in0.0 mm
04:15 AM 62.2°F16.8°C 52.7°F11.5°C 71% 0.3 mph W0.5 kmh W 1.6 mph2.6 kmh 30.11 in1019.6 mb 0.00 in0.0 mm 0.00 in0.0 mm 0.00 in0.0 mm
04:00 AM 62.2°F16.8°C 52.7°F11.5°C 71% 1.1 mph WSW1.8 kmh WSW 2.2 mph3.5 kmh 30.11 in1019.6 mb 0.00 in0.0 mm 0.00 in0.0 mm 0.00 in0.0 mm
03:45 AM 62.6°F17.0°C 53.1°F11.7°C 71% 1.1 mph WSW1.8 kmh WSW 2.2 mph3.5 kmh 30.12 in1020.0 mb 0.00 in0.0 mm 0.00 in0.0 mm 0.00 in0.0 mm
03:30 AM 62.8°F17.1°C 52.9°F11.6°C 70% 2.3 mph W3.7 kmh W 3.8 mph6.1 kmh 30.12 in1020.0 mb 0.00 in0.0 mm 0.00 in0.0 mm 0.00 in0.0 mm
03:15 AM 63.0°F17.2°C 53.0°F11.7°C 70% 2.5 mph W4.0 kmh W 3.8 mph6.1 kmh 30.13 in1020.3 mb 0.00 in0.0 mm 0.00 in0.0 mm 0.00 in0.0 mm
03:00 AM 63.1°F17.3°C 52.8°F11.6°C 69% 2.4 mph WSW3.9 kmh WSW 3.1 mph5.0 kmh 30.14 in1020.7 mb 0.00 in0.0 mm 0.00 in0.0 mm 0.00 in0.0 mm
02:45 AM 63.1°F17.3°C 52.4°F11.3°C 68% 1.2 mph WSW1.9 kmh WSW 3.1 mph5.0 kmh 30.14 in1020.7 mb 0.00 in0.0 mm 0.00 in0.0 mm 0.00 in0.0 mm
02:30 AM 63.7°F17.6°C 52.5°F11.4°C 67% 3.0 mph W4.8 kmh W 3.8 mph6.1 kmh 30.14 in1020.7 mb 0.00 in0.0 mm 0.00 in0.0 mm 0.00 in0.0 mm
02:15 AM 64.2°F17.9°C 52.2°F11.2°C 65% 1.6 mph W2.6 kmh W 3.1 mph5.0 kmh 30.15 in1021.0 mb 0.00 in0.0 mm 0.00 in0.0 mm 0.00 in0.0 mm
02:00 AM 64.4°F18.0°C 52.4°F11.3°C 65% 2.4 mph W3.9 kmh W 3.8 mph6.1 kmh 30.15 in1021.0 mb 0.00 in0.0 mm 0.00 in0.0 mm 0.00 in0.0 mm
01:45 AM 64.6°F18.1°C 52.6°F11.4°C 65% 2.2 mph W3.5 kmh W 3.8 mph6.1 kmh 30.15 in1021.0 mb 0.00 in0.0 mm 0.00 in0.0 mm 0.00 in0.0 mm
01:30 AM 64.4°F18.0°C 52.4°F11.3°C 65% 2.6 mph WSW4.2 kmh WSW 3.8 mph6.1 kmh 30.16 in1021.3 mb 0.00 in0.0 mm 0.00 in0.0 mm 0.00 in0.0 mm
01:15 AM 64.4°F18.0°C 52.4°F11.3°C 65% 2.8 mph W4.5 kmh W 5.4 mph8.7 kmh 30.16 in1021.3 mb 0.00 in0.0 mm 0.00 in0.0 mm 0.00 in0.0 mm
01:00 AM 64.4°F18.0°C 52.4°F11.3°C 65% 2.0 mph WSW3.2 kmh WSW 3.8 mph6.1 kmh 30.16 in1021.3 mb 0.00 in0.0 mm 0.00 in0.0 mm 0.00 in0.0 mm
12:45 AM 64.6°F18.1°C 52.6°F11.4°C 65% 2.7 mph WSW4.3 kmh WSW 4.5 mph7.2 kmh 30.16 in1021.3 mb 0.00 in0.0 mm 0.00 in0.0 mm 0.00 in0.0 mm
12:30 AM 64.8°F18.2°C 52.7°F11.5°C 65% 2.8 mph SW4.5 kmh SW 4.5 mph7.2 kmh 30.16 in1021.3 mb 0.00 in0.0 mm 0.00 in0.0 mm 0.00 in0.0 mm
12:15 AM 65.3°F18.5°C 53.3°F11.8°C 65% 3.5 mph WSW5.6 kmh WSW 5.4 mph8.7 kmh 30.16 in1021.3 mb 0.00 in0.0 mm 0.00 in0.0 mm 0.00 in0.0 mm
12:00 AM 65.3°F18.5°C 53.7°F12.1°C 66% 1.6 mph WNW2.6 kmh WNW 2.2 mph3.5 kmh 30.16 in1021.3 mb 0.00 in0.0 mm 0.00 in0.0 mm 0.00 in0.0 mm